Nearby METAR Reports

 

KSBP - San Luis Obispo, California, USA
Distance from station: S 14mi, 22km
Updated: Fri, 17-Sep-2021 12:39pm PDT
NOT Current
Overcast
Overcast
 Wind from WSW
Wind: WSW 6 mph , 9 km/h
Temperature: 61°F , 16°C
Dew Point: 52°F , 11°C
Humidity: 72%
Barometer: 30.03 inHg , 1016.9 hPa
Clouds: Overcast
Visibility: 10 miles , 16 km
Cloud details: Overcast 1500 ft
2021/09/17 19:39 KSBP 171939Z 25005KT 10SM OVC015 16/11 A3003 RMK AO2 T01610111
KPRB - Paso Robles, California, USA
Distance from station: N 16mi, 26km
Updated: Fri, 17-Sep-2021 11:53am PDT
NOT Current
Clear
Clear
 Wind from S
Wind: S 9 mph , 15 km/h
Temperature: 73°F , 23°C
Dew Point: 50°F , 10°C
Humidity: 44%
Barometer: 29.97 inHg , 1014.9 hPa
Clouds: Clear
Visibility: 10 miles , 16 km
2021/09/17 18:53 KPRB 171853Z AUTO 19008KT 10SM CLR 23/10 A2997 RMK AO2 SLP144 T02280100
 
KSMX - Santa Maria, California, USA
Distance from station: SSE 38mi, 62km
Updated: Fri, 17-Sep-2021 12:33pm PDT
NOT Current
Partly cloudy
Partly cloudy
 Wind from NW
Wind: NW 9 mph , 15 km/h
Temperature: 64°F , 18°C
Dew Point: 54°F , 12°C
Humidity: 68%
Barometer: 30.02 inHg , 1016.6 hPa
Clouds: Partly cloudy
Visibility: 9 miles , 14 km
Cloud details: Partly cloudy 1700 ft
2021/09/17 19:33 KSMX 171933Z 31008KT 9SM SCT017 18/12 A3002 RMK AO2 T01830122
KVBG - Vandenberg Afb, California, USA
Distance from station: S 48mi, 78km
Updated: Fri, 17-Sep-2021 11:58am PDT
NOT Current
Mostly cloudy
Mostly cloudy
 Wind from NW
Wind: NW 5 mph , 7 km/h
Temperature: 63°F , 17°C
Dew Point: 55°F , 13°C
Humidity: 77%
Barometer: 30.03 inHg , 1016.9 hPa
Clouds: Mostly cloudy
Visibility: 10 miles , 16 km
Cloud details: Mostly cloudy 1600 ft
2021/09/17 18:58 KVBG 171858Z 32004KT 10SM BKN016 17/13 A3003 RMK AO2A SLP172 T01700127 $